Accueil
METAR-TAF:

METAR-TAF

Aéroports :

Aéroport international de Kosrae

Kosrae, Micronésie

latitude: 05-21N, longitude: 162-57E, altitude: 3 m

Observation

Le bulletin a été fait il y a 18 minutes, à 23:51 UTC
Vent 2 kt de sud-est
Température 31°C
Humidité 79%
Pression 1009 hPa
Visibilité: 16.1 km
Quelques nuages à une hauteur de 2100 ft
Nuages fragmentés à une hauteur de 13000 ft
Nuages fragmentés à une hauteur de 30000 ft

METAR: PTSA 172351Z 13002KT 10SM FEW021 BKN130 BKN300 31/27 A2981

Heure: 11:09 (00:09 UTC)

Prévision

Le bulletin a été fait il y a 18 heures et 49 minutes, à 05:20 UTC
Prévision valable du 17 à 06 UTC au 18 à 06 UTC
Vent 8 kt de est/sud-est
Visibilité: 10 km
Nuages épars à une hauteur de 1800 ft
Nuages épars à une hauteur de 3000 ft
Nuages épars à une hauteur de 13000 ft
averses à proximité,

TAF: PTSA 170520Z 1706/1806 11008KT P6SM VCSH SCT018 SCT030 SCT130

Observations et prévisions météorologiques de plus de 4000 aéroports (messages METAR et TAF).

Les stations disponibles sont représentées par des disques jaunes et rouges sur la carte.

Passer la souris dessus pour voir le nom de la station.

Cliquer dessus pour voir les observations et prévisions météorologiques.

Pour changer de carte: cliquez sur les boutons verts avec une croix noire pour zoomer, sur le bouton vert avec un tiret pour effectuer un zoom arrière, ou sur les flèches vertes pour les cartes adjacentes.


METAR-TAF: